createdAt,value
2022-08-04T00:00:26.328Z,11.23
2022-08-04T00:01:53.808Z,10.18
2022-08-04T00:03:19.433Z,9.95
2022-08-04T00:04:50.208Z,9.02
2022-08-04T00:06:05.391Z,9.05
2022-08-04T00:07:24.124Z,11.23
2022-08-04T00:08:55.619Z,8.32
2022-08-04T00:10:04.007Z,9.20
2022-08-04T00:11:09.033Z,8.82
2022-08-04T00:12:19.925Z,9.15
2022-08-04T00:13:27.059Z,8.70
2022-08-04T00:14:34.211Z,9.43
2022-08-04T00:15:37.314Z,10.15
2022-08-04T00:16:41.936Z,9.13
2022-08-04T00:17:55.347Z,8.77
2022-08-04T00:19:18.397Z,9.55
2022-08-04T00:20:21.450Z,9.27
2022-08-04T00:21:26.050Z,8.90
2022-08-04T00:22:29.771Z,9.10
2022-08-04T00:24:11.103Z,10.43
2022-08-04T00:24:58.181Z,9.50
2022-08-04T00:26:01.006Z,8.15
2022-08-04T00:27:03.672Z,8.35
2022-08-04T00:28:05.334Z,9.70
2022-08-04T00:29:07.542Z,10.88
2022-08-04T00:30:09.717Z,8.73
2022-08-04T00:31:12.043Z,10.63
2022-08-04T00:32:34.135Z,9.38
2022-08-04T00:33:38.570Z,10.45
2022-08-04T00:34:41.077Z,9.68
2022-08-04T00:35:44.552Z,10.43
2022-08-04T00:36:46.659Z,9.15
2022-08-04T00:37:49.300Z,9.25
2022-08-04T00:38:52.163Z,9.10
2022-08-04T00:39:55.002Z,11.10
2022-08-04T00:41:11.764Z,8.80
2022-08-04T00:42:31.396Z,9.63
2022-08-04T00:43:33.191Z,8.38
2022-08-04T00:45:02.367Z,9.05
2022-08-04T00:46:45.073Z,10.38
2022-08-04T00:48:11.386Z,9.07
2022-08-04T00:49:25.024Z,9.45
2022-08-04T00:50:44.684Z,7.47
2022-08-04T00:52:32.673Z,8.70
2022-08-04T00:53:40.357Z,11.07
2022-08-04T00:55:06.935Z,8.95
2022-08-04T00:56:58.475Z,10.27
2022-08-04T00:58:18.907Z,9.40
2022-08-04T00:59:49.942Z,9.55
2022-08-04T01:01:03.977Z,7.80
2022-08-04T01:02:22.629Z,9.63
2022-08-04T01:03:34.108Z,8.15
2022-08-04T01:07:03.916Z,8.00
2022-08-04T01:08:47.151Z,8.90
2022-08-04T01:10:14.225Z,9.55
2022-08-04T01:11:28.773Z,6.95
2022-08-04T01:12:49.513Z,10.68
2022-08-04T01:13:57.431Z,10.25
2022-08-04T01:15:15.165Z,8.82
2022-08-04T01:16:18.154Z,10.15
2022-08-04T01:17:25.541Z,9.45
2022-08-04T01:18:57.756Z,8.63
2022-08-04T01:20:10.501Z,9.20
2022-08-04T01:21:30.687Z,8.27
2022-08-04T01:22:32.280Z,9.05
2022-08-04T01:23:39.825Z,8.90
2022-08-04T01:25:08.562Z,8.60
2022-08-04T01:26:43.198Z,9.90
2022-08-04T01:28:15.570Z,8.38
2022-08-04T01:29:22.990Z,8.90
2022-08-04T01:30:27.675Z,9.93
2022-08-04T01:31:55.376Z,8.02
2022-08-04T01:33:04.384Z,7.50
2022-08-04T01:34:09.930Z,9.80
2022-08-04T01:35:21.930Z,9.45
2022-08-04T01:36:25.588Z,7.88
2022-08-04T01:37:46.038Z,8.60
2022-08-04T01:38:48.279Z,11.02
2022-08-04T01:39:58.077Z,9.55
2022-08-04T01:41:03.665Z,10.20
2022-08-04T01:42:06.464Z,8.95
2022-08-04T01:43:14.480Z,11.10
2022-08-04T01:44:18.648Z,9.70
2022-08-04T01:45:23.020Z,10.18
2022-08-04T01:46:26.880Z,7.18
2022-08-04T01:47:30.366Z,9.57
2022-08-04T01:48:32.766Z,9.80
2022-08-04T01:49:40.139Z,9.02
2022-08-04T01:50:45.160Z,8.60
2022-08-04T01:51:51.046Z,7.95
2022-08-04T01:52:54.560Z,11.40
2022-08-04T01:53:56.236Z,8.30
2022-08-04T01:54:58.088Z,6.95
2022-08-04T01:56:01.841Z,8.38
2022-08-04T01:57:45.967Z,8.85
2022-08-04T01:58:30.549Z,9.60
2022-08-04T01:59:34.319Z,8.15
2022-08-04T02:00:42.014Z,8.02
2022-08-04T02:01:43.744Z,8.75
2022-08-04T02:02:47.350Z,8.77
2022-08-04T02:04:20.824Z,10.70
2022-08-04T02:05:14.493Z,8.10
2022-08-04T02:06:36.576Z,7.85
2022-08-04T02:08:17.654Z,8.02
2022-08-04T02:09:54.381Z,8.20
2022-08-04T02:11:08.422Z,8.43
2022-08-04T02:12:23.886Z,9.65
2022-08-04T02:13:47.360Z,8.07
2022-08-04T02:15:22.451Z,8.43
2022-08-04T02:16:42.400Z,7.70
2022-08-04T02:17:43.979Z,8.27
2022-08-04T02:19:01.969Z,9.85
2022-08-04T02:20:07.062Z,9.27
2022-08-04T02:21:09.529Z,7.78
2022-08-04T02:22:18.120Z,7.90
2022-08-04T02:23:36.975Z,8.57
2022-08-04T02:24:50.373Z,8.27
2022-08-04T02:26:04.350Z,7.68
2022-08-04T02:27:07.322Z,8.15
2022-08-04T02:28:16.325Z,8.85
2022-08-04T02:29:49.725Z,7.50
2022-08-04T02:31:13.775Z,7.55
2022-08-04T02:32:27.941Z,7.60
2022-08-04T02:33:45.438Z,7.28
2022-08-04T02:35:06.474Z,7.85
2022-08-04T02:36:14.089Z,7.80
2022-08-04T02:37:21.340Z,8.38
2022-08-04T02:38:55.396Z,8.27
2022-08-04T02:40:01.346Z,7.28
2022-08-04T02:41:05.846Z,9.65
2022-08-04T02:42:07.910Z,6.25
2022-08-04T02:43:15.262Z,7.32
2022-08-04T02:44:22.785Z,8.35
2022-08-04T02:45:26.872Z,8.88
2022-08-04T02:46:30.666Z,9.07
2022-08-04T02:48:28.660Z,6.65
2022-08-04T02:48:56.553Z,7.05
2022-08-04T02:49:59.913Z,6.35
2022-08-04T02:51:03.745Z,6.70
2022-08-04T02:52:11.031Z,7.03
2022-08-04T02:53:16.602Z,7.90
2022-08-04T02:54:33.465Z,7.90
2022-08-04T02:55:36.206Z,7.18
2022-08-04T02:56:40.367Z,6.78
2022-08-04T02:57:45.014Z,7.88
2022-08-04T02:59:14.367Z,7.50
2022-08-04T03:00:17.516Z,8.75
2022-08-04T03:01:21.352Z,9.20
2022-08-04T03:02:32.598Z,6.80
2022-08-04T03:03:44.853Z,7.57
2022-08-04T03:05:00.573Z,8.95
2022-08-04T03:06:28.515Z,9.35
2022-08-04T03:07:39.681Z,8.15
2022-08-04T03:08:47.090Z,6.90
2022-08-04T03:10:19.639Z,8.30
2022-08-04T03:11:49.510Z,8.00
2022-08-04T03:13:29.129Z,7.90
2022-08-04T03:15:24.043Z,8.07
2022-08-04T03:16:55.931Z,7.50
2022-08-04T03:18:39.005Z,8.35
2022-08-04T03:20:14.128Z,8.88
2022-08-04T03:21:34.243Z,9.23
2022-08-04T03:23:12.082Z,7.65
2022-08-04T03:25:10.239Z,7.60
2022-08-04T03:26:31.967Z,9.93
2022-08-04T03:27:48.526Z,8.80
2022-08-04T03:29:11.663Z,7.88
2022-08-04T03:30:29.549Z,8.10
2022-08-04T03:31:47.515Z,8.13
2022-08-04T03:33:26.251Z,9.45
2022-08-04T03:34:58.212Z,10.13
2022-08-04T03:36:31.873Z,8.35
2022-08-04T03:37:59.720Z,9.70
2022-08-04T03:39:26.889Z,9.60
2022-08-04T03:40:55.360Z,10.18
2022-08-04T03:42:32.880Z,7.47
2022-08-04T03:44:07.104Z,7.95
2022-08-04T03:45:39.981Z,8.35
2022-08-04T03:46:56.710Z,10.93
2022-08-04T03:48:22.583Z,8.38
2022-08-04T03:49:56.608Z,10.20
2022-08-04T03:52:01.000Z,8.15
2022-08-04T03:53:17.787Z,8.23
2022-08-04T03:56:32.669Z,9.90
2022-08-04T03:58:15.784Z,9.43
2022-08-04T03:59:42.020Z,8.43
2022-08-04T04:01:12.024Z,10.90
2022-08-04T04:02:34.364Z,10.57
2022-08-04T04:04:00.525Z,8.68
2022-08-04T04:05:11.485Z,9.52
2022-08-04T04:06:33.141Z,10.50
2022-08-04T04:07:59.876Z,8.23
2022-08-04T04:09:03.353Z,9.73
2022-08-04T04:10:28.973Z,10.38
2022-08-04T04:11:57.111Z,7.70
2022-08-04T04:13:49.869Z,8.80
2022-08-04T04:15:11.998Z,9.05
2022-08-04T04:16:38.650Z,9.02
2022-08-04T04:18:28.233Z,9.25
2022-08-04T04:19:52.601Z,7.55
2022-08-04T04:21:21.841Z,11.02
2022-08-04T04:23:02.289Z,7.55
2022-08-04T04:24:34.137Z,9.48
2022-08-04T04:25:42.394Z,8.80
2022-08-04T04:27:01.454Z,9.52
2022-08-04T04:28:50.090Z,7.25
2022-08-04T04:30:08.864Z,9.73
2022-08-04T04:31:53.786Z,6.85
2022-08-04T04:33:25.142Z,6.80
2022-08-04T04:34:57.137Z,7.90
2022-08-04T04:36:13.083Z,9.13
2022-08-04T04:37:21.413Z,7.47
2022-08-04T04:38:34.431Z,7.38
2022-08-04T04:40:03.621Z,8.77
2022-08-04T04:41:22.740Z,8.02
2022-08-04T04:42:53.307Z,8.30
2022-08-04T04:44:30.826Z,10.30
2022-08-04T04:45:58.171Z,9.85
2022-08-04T04:47:11.678Z,9.60
2022-08-04T04:48:27.088Z,7.85
2022-08-04T04:49:54.453Z,6.47
2022-08-04T04:51:12.470Z,7.53
2022-08-04T04:52:52.893Z,9.55
2022-08-04T04:54:00.789Z,8.13
2022-08-04T04:55:05.409Z,9.32
2022-08-04T04:56:16.481Z,9.02
2022-08-04T04:57:23.183Z,8.75
2022-08-04T04:58:43.632Z,8.40
2022-08-04T04:59:56.461Z,9.80
2022-08-04T05:01:10.480Z,8.70
2022-08-04T05:02:24.113Z,9.95
2022-08-04T05:03:44.250Z,8.57
2022-08-04T05:05:06.976Z,11.35
2022-08-04T05:06:32.370Z,10.45
2022-08-04T05:08:45.490Z,9.48
2022-08-04T05:09:58.664Z,8.18
2022-08-04T05:11:25.642Z,8.52
2022-08-04T05:14:36.727Z,8.27
2022-08-04T05:14:48.338Z,9.95
2022-08-04T05:15:55.057Z,8.20
2022-08-04T05:17:11.167Z,8.48
2022-08-04T05:18:19.862Z,8.55
2022-08-04T05:19:42.791Z,10.57
2022-08-04T05:20:48.742Z,9.40
2022-08-04T05:21:59.509Z,7.25
2022-08-04T05:23:10.949Z,8.90
2022-08-04T05:24:17.745Z,9.85
2022-08-04T05:25:50.156Z,8.98
2022-08-04T05:27:07.357Z,8.23
2022-08-04T05:28:23.380Z,9.88
2022-08-04T05:29:41.261Z,9.80
2022-08-04T05:30:49.916Z,10.10
2022-08-04T05:31:54.373Z,9.30
2022-08-04T05:32:59.225Z,10.35
2022-08-04T05:34:26.277Z,9.70
2022-08-04T05:35:49.833Z,8.68
2022-08-04T05:37:07.491Z,8.68
2022-08-04T05:38:11.976Z,10.00
2022-08-04T05:39:20.177Z,10.02
2022-08-04T05:40:25.229Z,9.57
2022-08-04T05:41:32.422Z,10.27
2022-08-04T05:42:49.177Z,8.85
2022-08-04T05:43:52.616Z,8.55
2022-08-04T05:44:55.973Z,9.93
2022-08-04T05:46:00.453Z,8.45
2022-08-04T05:47:04.284Z,7.97
2022-08-04T05:48:08.603Z,8.13
2022-08-04T05:49:11.229Z,9.45
2022-08-04T05:50:19.143Z,11.43
2022-08-04T05:51:23.303Z,7.85
2022-08-04T05:52:26.031Z,9.07
2022-08-04T05:53:29.020Z,10.00
2022-08-04T05:54:33.118Z,9.48
2022-08-04T05:55:48.920Z,9.98
2022-08-04T05:56:58.283Z,7.65
2022-08-04T05:58:01.919Z,8.43
2022-08-04T05:59:05.436Z,10.13
2022-08-04T06:00:31.823Z,8.45
2022-08-04T06:01:32.690Z,10.23
2022-08-04T06:02:56.792Z,7.78
2022-08-04T06:04:01.476Z,9.80
2022-08-04T06:05:05.847Z,8.32
2022-08-04T06:06:09.718Z,7.50
2022-08-04T06:07:11.535Z,7.40
2022-08-04T06:08:14.560Z,8.32
2022-08-04T06:09:16.330Z,7.40
2022-08-04T06:10:23.081Z,7.57
2022-08-04T06:12:01.754Z,8.55
2022-08-04T06:13:01.394Z,11.05
2022-08-04T06:14:07.331Z,8.27
2022-08-04T06:15:13.357Z,8.07
2022-08-04T06:16:29.654Z,7.95
2022-08-04T06:18:32.989Z,10.45
2022-08-04T06:20:03.667Z,9.27
2022-08-04T06:20:34.677Z,8.40
2022-08-04T06:21:39.923Z,8.27
2022-08-04T06:22:43.520Z,8.63
2022-08-04T06:23:56.083Z,8.70
2022-08-04T06:25:05.406Z,9.57
2022-08-04T06:26:12.330Z,8.88
2022-08-04T06:27:15.557Z,9.60
2022-08-04T06:28:19.387Z,7.30
2022-08-04T06:29:30.793Z,8.80
2022-08-04T06:30:37.222Z,7.45
2022-08-04T06:32:26.791Z,7.82
2022-08-04T06:33:54.630Z,7.75
2022-08-04T06:35:04.641Z,8.02
2022-08-04T06:36:07.529Z,8.68
2022-08-04T06:37:10.427Z,9.10
2022-08-04T06:38:12.626Z,8.52
2022-08-04T06:39:16.304Z,8.20
2022-08-04T06:40:31.597Z,7.45
2022-08-04T06:42:16.988Z,7.10
2022-08-04T06:43:07.123Z,6.25
2022-08-04T06:44:11.237Z,7.13
2022-08-04T06:45:14.526Z,11.77
2022-08-04T06:46:16.791Z,7.97
2022-08-04T06:47:21.255Z,8.93
2022-08-04T06:48:24.610Z,7.90
2022-08-04T06:49:55.091Z,7.63
2022-08-04T06:51:27.652Z,7.03
2022-08-04T06:52:23.523Z,7.00
2022-08-04T06:53:26.176Z,8.30
2022-08-04T06:54:27.848Z,8.48
2022-08-04T06:55:30.089Z,7.63
2022-08-04T06:56:34.797Z,8.48
2022-08-04T06:57:37.060Z,9.63
2022-08-04T06:58:40.798Z,6.78
2022-08-04T07:00:12.337Z,5.95
2022-08-04T07:01:16.706Z,7.25
2022-08-04T07:02:22.547Z,7.47
2022-08-04T07:03:24.450Z,6.25
2022-08-04T07:04:26.302Z,6.75
2022-08-04T07:05:28.954Z,10.13
2022-08-04T07:06:31.472Z,8.77
2022-08-04T07:07:33.696Z,6.47
2022-08-04T07:08:39.608Z,8.23
2022-08-04T07:09:41.516Z,6.90
2022-08-04T07:10:45.780Z,8.52
2022-08-04T07:11:52.073Z,7.25
2022-08-04T07:12:54.794Z,7.07
2022-08-04T07:13:57.779Z,7.85
2022-08-04T07:14:59.935Z,6.90
2022-08-04T07:16:01.905Z,6.45
2022-08-04T07:17:08.789Z,6.97
2022-08-04T07:18:10.568Z,7.85
2022-08-04T07:19:15.899Z,7.65
2022-08-04T07:20:32.968Z,6.55
2022-08-04T07:21:37.313Z,7.55
2022-08-04T07:22:41.968Z,7.82
2022-08-04T07:23:45.775Z,6.05
2022-08-04T07:24:47.921Z,7.35
2022-08-04T07:25:59.782Z,7.13
2022-08-04T07:27:14.005Z,7.90
2022-08-04T07:28:15.740Z,7.40
2022-08-04T07:29:18.376Z,6.95
2022-08-04T07:30:24.595Z,7.30
2022-08-04T07:31:34.612Z,8.40
2022-08-04T07:32:38.678Z,7.72
2022-08-04T07:33:42.301Z,7.47
2022-08-04T07:34:44.609Z,9.32
2022-08-04T07:36:09.679Z,9.30
2022-08-04T07:37:14.232Z,7.18
2022-08-04T07:38:16.269Z,6.75
2022-08-04T07:39:27.191Z,8.70
2022-08-04T07:40:30.894Z,7.40
2022-08-04T07:41:35.673Z,7.30
2022-08-04T07:42:38.626Z,7.47
2022-08-04T07:43:41.855Z,7.07
2022-08-04T07:44:45.652Z,6.80
2022-08-04T07:45:47.518Z,7.40
2022-08-04T07:46:49.197Z,6.55
2022-08-04T07:48:04.246Z,7.68
2022-08-04T07:49:08.213Z,7.07
2022-08-04T07:50:11.106Z,6.45
2022-08-04T07:51:13.298Z,7.20
2022-08-04T07:52:16.133Z,6.45
2022-08-04T07:53:55.496Z,7.75
2022-08-04T07:54:41.583Z,8.75
2022-08-04T07:55:46.206Z,6.57
2022-08-04T07:56:54.070Z,6.40
2022-08-04T07:57:56.128Z,7.30
2022-08-04T07:58:58.216Z,6.45
2022-08-04T08:00:01.007Z,6.82
2022-08-04T08:01:03.025Z,6.15
2022-08-04T08:02:04.884Z,6.82
2022-08-04T08:03:08.081Z,6.35
2022-08-04T08:04:11.374Z,5.75
2022-08-04T08:05:14.763Z,6.20
2022-08-04T08:06:30.695Z,8.52
2022-08-04T08:07:35.929Z,5.70
2022-08-04T08:08:41.899Z,5.97
2022-08-04T08:09:43.658Z,6.15
2022-08-04T08:10:48.819Z,6.72
2022-08-04T08:12:35.502Z,6.30
2022-08-04T08:13:15.977Z,6.85
2022-08-04T08:14:18.872Z,7.57
2022-08-04T08:15:22.960Z,5.63
2022-08-04T08:16:25.932Z,10.10
2022-08-04T08:17:27.624Z,5.63
2022-08-04T08:18:30.281Z,6.20
2022-08-04T08:19:33.164Z,8.32
2022-08-04T08:20:34.896Z,7.20
2022-08-04T08:21:59.542Z,5.35
2022-08-04T08:23:05.435Z,6.95
2022-08-04T08:24:12.681Z,7.55
2022-08-04T08:25:14.714Z,6.82
2022-08-04T08:26:17.290Z,7.68
2022-08-04T08:27:20.874Z,7.20
2022-08-04T08:28:22.973Z,5.95
2022-08-04T08:29:26.612Z,5.70
2022-08-04T08:30:31.743Z,7.80
2022-08-04T08:31:57.426Z,7.13
2022-08-04T08:33:01.361Z,7.10
2022-08-04T08:34:03.184Z,6.38
2022-08-04T08:35:06.550Z,6.63
2022-08-04T08:36:42.017Z,6.90
2022-08-04T08:37:53.000Z,4.80
2022-08-04T08:39:24.294Z,6.60
2022-08-04T08:40:57.829Z,5.95
2022-08-04T08:42:27.570Z,5.30
2022-08-04T08:44:00.250Z,7.28
2022-08-04T08:45:45.066Z,5.38
2022-08-04T08:47:21.390Z,7.57
2022-08-04T08:48:51.802Z,6.65
2022-08-04T08:50:04.718Z,5.68
2022-08-04T08:51:31.750Z,5.55
2022-08-04T08:53:03.180Z,5.55
2022-08-04T08:54:40.697Z,5.47
2022-08-04T08:56:00.317Z,6.55
2022-08-04T08:57:26.508Z,5.53
2022-08-04T08:58:57.208Z,7.43
2022-08-04T09:00:01.509Z,7.40
2022-08-04T09:01:42.023Z,8.27
2022-08-04T09:03:13.337Z,6.90
2022-08-04T09:04:53.152Z,8.07
2022-08-04T09:05:57.570Z,7.65
2022-08-04T09:07:32.515Z,7.25
2022-08-04T09:08:46.256Z,6.75
2022-08-04T09:10:19.004Z,5.65
2022-08-04T09:11:24.404Z,8.40
2022-08-04T09:12:49.203Z,6.75
2022-08-04T09:14:04.661Z,5.35
2022-08-04T09:15:12.802Z,9.40
2022-08-04T09:16:24.221Z,7.10
2022-08-04T09:17:37.400Z,6.85
2022-08-04T09:18:45.346Z,5.80
2022-08-04T09:19:56.186Z,8.25
2022-08-04T09:21:19.826Z,5.93
2022-08-04T09:22:29.649Z,7.25
2022-08-04T09:24:00.223Z,5.47
2022-08-04T09:25:10.625Z,6.38
2022-08-04T09:26:49.678Z,6.32
2022-08-04T09:28:11.072Z,6.72
2022-08-04T09:29:48.363Z,6.88
2022-08-04T09:31:14.302Z,5.80
2022-08-04T09:32:32.894Z,7.00
2022-08-04T09:33:55.136Z,7.03
2022-08-04T09:35:34.639Z,7.25
2022-08-04T09:36:51.481Z,6.85
2022-08-04T09:38:11.141Z,6.35
2022-08-04T09:39:33.206Z,7.93
2022-08-04T09:40:57.856Z,6.75
2022-08-04T09:42:12.817Z,6.70
2022-08-04T09:44:43.179Z,7.40
2022-08-04T09:45:01.994Z,6.68
2022-08-04T09:46:34.878Z,6.97
2022-08-04T09:47:59.088Z,6.00
2022-08-04T09:49:15.059Z,5.57
2022-08-04T09:50:52.338Z,7.15
2022-08-04T09:52:09.806Z,5.20
2022-08-04T09:53:47.165Z,5.95
2022-08-04T09:54:59.506Z,7.22
2022-08-04T09:56:14.964Z,6.63
2022-08-04T09:58:02.331Z,6.55
2022-08-04T09:59:20.254Z,5.45
2022-08-04T10:00:38.463Z,5.93
2022-08-04T10:01:44.016Z,5.60
2022-08-04T10:02:57.705Z,5.38
2022-08-04T10:04:05.952Z,7.75
2022-08-04T10:05:14.728Z,6.13
2022-08-04T10:06:35.025Z,6.38
2022-08-04T10:08:15.831Z,6.53
2022-08-04T10:09:59.657Z,5.97
2022-08-04T10:11:08.018Z,5.82
2022-08-04T10:12:18.410Z,6.43
2022-08-04T10:13:50.717Z,7.43
2022-08-04T10:14:58.106Z,6.35
2022-08-04T10:16:29.955Z,5.40
2022-08-04T10:17:52.837Z,4.63
2022-08-04T10:19:17.274Z,5.25
2022-08-04T10:20:51.730Z,4.53
2022-08-04T10:22:28.025Z,6.32
2022-08-04T10:23:56.033Z,6.28
2022-08-04T10:26:03.438Z,6.18
2022-08-04T10:26:48.930Z,5.75
2022-08-04T10:28:04.182Z,5.32
2022-08-04T10:29:12.597Z,5.35
2022-08-04T10:30:17.946Z,6.07
2022-08-04T10:31:26.556Z,6.22
2022-08-04T10:32:34.726Z,6.10
2022-08-04T10:34:10.126Z,6.53
2022-08-04T10:35:21.229Z,6.13
2022-08-04T10:36:27.616Z,4.75
2022-08-04T10:37:59.853Z,4.65
2022-08-04T10:39:06.054Z,6.07
2022-08-04T10:40:32.052Z,6.95
2022-08-04T10:41:53.318Z,4.43
2022-08-04T10:43:27.184Z,5.57
2022-08-04T10:44:45.157Z,7.43
2022-08-04T10:45:59.455Z,6.05
2022-08-04T10:47:08.109Z,4.57
2022-08-04T10:48:34.705Z,5.63
2022-08-04T10:49:43.249Z,4.00
2022-08-04T10:51:14.808Z,5.05
2022-08-04T10:52:38.370Z,4.05
2022-08-04T10:53:42.028Z,6.35
2022-08-04T10:54:57.235Z,4.20
2022-08-04T10:56:41.578Z,5.72
2022-08-04T10:57:55.361Z,4.80
2022-08-04T10:59:03.779Z,4.95
2022-08-04T11:00:13.280Z,4.07
2022-08-04T11:02:01.437Z,3.97
2022-08-04T11:03:08.987Z,4.95
2022-08-04T11:04:39.363Z,4.25
2022-08-04T11:05:53.726Z,4.47
2022-08-04T11:06:58.619Z,3.67
2022-08-04T11:08:07.586Z,4.43
2022-08-04T11:09:14.904Z,4.57
2022-08-04T11:10:20.852Z,3.83
2022-08-04T11:11:24.207Z,4.90
2022-08-04T11:12:26.986Z,4.13
2022-08-04T11:13:54.694Z,4.70
2022-08-04T11:15:04.177Z,4.53
2022-08-04T11:16:16.610Z,4.10
2022-08-04T11:17:24.476Z,3.92
2022-08-04T11:19:04.459Z,3.05
2022-08-04T11:20:50.691Z,4.82
2022-08-04T11:22:04.031Z,3.42
2022-08-04T11:23:12.746Z,4.93
2022-08-04T11:24:22.857Z,4.32
2022-08-04T11:25:39.203Z,4.78
2022-08-04T11:26:58.312Z,5.40
2022-08-04T11:27:59.949Z,4.43
2022-08-04T11:29:12.284Z,5.13
2022-08-04T11:30:15.800Z,5.00
2022-08-04T11:31:25.734Z,5.22
2022-08-04T11:32:35.879Z,4.78
2022-08-04T11:33:56.684Z,4.65
2022-08-04T11:35:02.590Z,5.20
2022-08-04T11:36:49.917Z,4.88
2022-08-04T11:38:19.489Z,3.85
2022-08-04T11:39:37.267Z,4.82
2022-08-04T11:41:02.805Z,4.70
2022-08-04T11:42:15.016Z,6.38
2022-08-04T11:44:02.579Z,4.15
2022-08-04T11:44:59.539Z,5.00
2022-08-04T11:46:12.822Z,5.00
2022-08-04T11:47:21.422Z,4.20
2022-08-04T11:48:35.782Z,5.88
2022-08-04T11:49:56.012Z,5.38
2022-08-04T11:51:02.515Z,3.92
2022-08-04T11:52:11.767Z,5.15
2022-08-04T11:53:17.217Z,5.75
2022-08-04T11:54:20.397Z,5.00
2022-08-04T11:55:25.432Z,5.10
2022-08-04T11:56:36.949Z,5.28
2022-08-04T11:57:40.074Z,4.65
2022-08-04T11:58:50.491Z,3.63
2022-08-04T11:59:57.106Z,4.57
2022-08-04T12:01:20.023Z,4.97
2022-08-04T12:02:53.074Z,4.45
2022-08-04T12:04:04.303Z,4.57
2022-08-04T12:05:09.228Z,4.45
2022-08-04T12:06:29.156Z,4.50
2022-08-04T12:07:49.577Z,4.32
2022-08-04T12:09:14.751Z,5.65
2022-08-04T12:10:42.681Z,5.20
2022-08-04T12:12:03.873Z,4.25
2022-08-04T12:13:37.195Z,4.40
2022-08-04T12:14:52.671Z,4.85
2022-08-04T12:16:10.745Z,4.97
2022-08-04T12:17:18.715Z,6.28
2022-08-04T12:18:34.769Z,4.72
2022-08-04T12:20:04.126Z,4.03
2022-08-04T12:21:53.294Z,3.55
2022-08-04T12:22:58.069Z,4.38
2022-08-04T12:24:08.409Z,4.30
2022-08-04T12:25:16.211Z,4.68
2022-08-04T12:26:24.797Z,5.75
2022-08-04T12:27:48.282Z,4.97
2022-08-04T12:29:13.037Z,4.18
2022-08-04T12:30:57.436Z,3.35
2022-08-04T12:31:51.104Z,4.57
2022-08-04T12:33:04.144Z,4.35
2022-08-04T12:34:31.109Z,4.00
2022-08-04T12:35:39.519Z,5.00
2022-08-04T12:37:31.853Z,4.85
2022-08-04T12:38:35.281Z,4.57
2022-08-04T12:40:21.557Z,6.15
2022-08-04T12:41:03.685Z,5.55
2022-08-04T12:42:22.281Z,4.68
2022-08-04T12:43:34.970Z,5.05
2022-08-04T12:44:39.339Z,5.18
2022-08-04T12:45:50.144Z,5.25
2022-08-04T12:46:52.539Z,6.03
2022-08-04T12:47:58.214Z,5.50
2022-08-04T12:49:04.009Z,5.25
2022-08-04T12:50:07.981Z,5.25
2022-08-04T12:52:06.796Z,4.18
2022-08-04T12:53:02.258Z,4.53
2022-08-04T12:54:06.919Z,4.20
2022-08-04T12:55:10.522Z,5.63
2022-08-04T12:56:16.346Z,4.45
2022-08-04T12:57:18.968Z,4.97
2022-08-04T12:58:42.871Z,4.30
2022-08-04T12:59:47.977Z,5.45
2022-08-04T13:02:09.290Z,5.47
2022-08-04T13:02:33.024Z,4.72
2022-08-04T13:03:46.757Z,4.72
2022-08-04T13:04:51.185Z,5.30
2022-08-04T13:05:55.818Z,4.75
2022-08-04T13:07:02.896Z,5.15
2022-08-04T13:08:06.641Z,4.63
2022-08-04T13:09:17.613Z,4.60
2022-08-04T13:10:30.368Z,4.40
2022-08-04T13:11:39.070Z,6.05
2022-08-04T13:12:45.886Z,5.97
2022-08-04T13:14:10.937Z,5.10
2022-08-04T13:15:20.615Z,5.93
2022-08-04T13:16:32.895Z,5.88
2022-08-04T13:18:14.002Z,4.72
2022-08-04T13:19:17.185Z,4.78
2022-08-04T13:20:29.829Z,5.15
2022-08-04T13:22:01.828Z,4.30
2022-08-04T13:23:21.803Z,4.53
2022-08-04T13:24:32.137Z,4.93
2022-08-04T13:26:43.169Z,5.20
2022-08-04T13:27:09.135Z,5.05
2022-08-04T13:28:23.426Z,4.65
2022-08-04T13:29:59.555Z,5.00
2022-08-04T13:30:58.918Z,5.78
2022-08-04T13:32:02.535Z,5.57
2022-08-04T13:33:05.761Z,5.07
2022-08-04T13:34:19.028Z,5.65
2022-08-04T13:35:21.713Z,6.10
2022-08-04T13:36:28.211Z,5.15
2022-08-04T13:37:36.214Z,4.10
2022-08-04T13:38:45.244Z,4.88
2022-08-04T13:39:55.765Z,5.43
2022-08-04T13:41:02.056Z,5.45
2022-08-04T13:42:10.705Z,5.38
2022-08-04T13:44:16.042Z,4.60
2022-08-04T13:44:49.085Z,4.05
2022-08-04T13:45:51.743Z,5.25
2022-08-04T13:46:59.477Z,4.38
2022-08-04T13:48:14.974Z,6.40
2022-08-04T13:49:37.769Z,5.57
2022-08-04T13:50:47.036Z,4.20
2022-08-04T13:52:11.324Z,5.40
2022-08-04T13:53:17.594Z,4.28
2022-08-04T13:54:24.294Z,4.57
2022-08-04T13:55:35.036Z,5.70
2022-08-04T13:56:40.327Z,4.47
2022-08-04T13:57:47.081Z,4.55
2022-08-04T13:58:54.315Z,4.35
2022-08-04T14:00:01.776Z,4.72
2022-08-04T14:01:19.507Z,5.72
2022-08-04T14:02:42.377Z,4.20
2022-08-04T14:03:53.594Z,4.80
2022-08-04T14:05:01.894Z,4.85
2022-08-04T14:06:15.426Z,5.30
2022-08-04T14:07:21.059Z,5.90
2022-08-04T14:08:29.039Z,5.45
2022-08-04T14:09:38.104Z,7.30
2022-08-04T14:10:40.396Z,5.90
2022-08-04T14:12:10.643Z,7.47
2022-08-04T14:13:09.700Z,6.90
2022-08-04T14:14:32.868Z,7.20
2022-08-04T14:16:01.977Z,4.80
2022-08-04T14:17:05.790Z,5.20
2022-08-04T14:18:28.364Z,4.35
2022-08-04T14:19:46.716Z,5.28
2022-08-04T14:20:58.997Z,5.47
2022-08-04T14:22:02.241Z,5.05
2022-08-04T14:23:04.045Z,5.82
2022-08-04T14:24:05.864Z,5.07
2022-08-04T14:25:16.974Z,4.90
2022-08-04T14:26:32.676Z,4.53
2022-08-04T14:27:50.930Z,5.07
2022-08-04T14:29:25.312Z,4.40
2022-08-04T14:30:32.809Z,5.32
2022-08-04T14:31:35.813Z,4.57
2022-08-04T14:32:57.991Z,4.95
2022-08-04T14:34:04.805Z,5.00
2022-08-04T14:35:12.438Z,4.45
2022-08-04T14:36:16.248Z,4.43
2022-08-04T14:37:24.271Z,5.15
2022-08-04T14:38:42.834Z,5.47
2022-08-04T14:40:18.640Z,4.50
2022-08-04T14:41:13.342Z,4.95
2022-08-04T14:42:15.469Z,5.13
2022-08-04T14:43:19.381Z,3.45
2022-08-04T14:44:21.562Z,5.40
2022-08-04T14:45:36.595Z,3.90
2022-08-04T14:46:55.964Z,5.15
2022-08-04T14:47:58.352Z,4.50
2022-08-04T14:49:12.456Z,5.18
2022-08-04T14:50:15.248Z,4.45
2022-08-04T14:51:17.665Z,5.05
2022-08-04T14:52:27.999Z,5.45
2022-08-04T14:53:29.900Z,5.70
2022-08-04T14:54:34.107Z,5.53
2022-08-04T14:55:37.238Z,4.38
2022-08-04T14:56:52.447Z,4.97
2022-08-04T14:58:33.868Z,4.45
2022-08-04T14:59:15.972Z,5.35
2022-08-04T15:00:28.929Z,5.25
2022-08-04T15:01:31.412Z,4.57
2022-08-04T15:02:36.308Z,4.15
2022-08-04T15:03:49.687Z,4.82
2022-08-04T15:04:53.760Z,4.82
2022-08-04T15:06:05.434Z,5.22
2022-08-04T15:07:09.942Z,5.68
2022-08-04T15:08:13.613Z,5.95
2022-08-04T15:09:15.721Z,4.90
2022-08-04T15:10:17.506Z,5.60
2022-08-04T15:11:23.346Z,4.15
2022-08-04T15:12:26.696Z,5.07
2022-08-04T15:13:32.497Z,5.03
2022-08-04T15:14:37.960Z,5.00
2022-08-04T15:15:43.790Z,5.47
2022-08-04T15:17:12.051Z,5.10
2022-08-04T15:18:30.498Z,5.05
2022-08-04T15:19:33.764Z,7.78
2022-08-04T15:20:36.508Z,4.95
2022-08-04T15:21:39.238Z,6.20
2022-08-04T15:22:43.289Z,4.32
2022-08-04T15:23:45.134Z,5.47
2022-08-04T15:24:52.082Z,4.75
2022-08-04T15:26:01.250Z,5.45
2022-08-04T15:27:05.247Z,6.15
2022-08-04T15:28:12.262Z,6.25
2022-08-04T15:29:59.260Z,5.50
2022-08-04T15:31:10.526Z,3.75
2022-08-04T15:32:32.022Z,4.85
2022-08-04T15:33:34.545Z,5.57
2022-08-04T15:34:46.307Z,4.68
2022-08-04T15:35:52.847Z,4.32
2022-08-04T15:36:57.992Z,4.80
2022-08-04T15:38:00.251Z,4.70
2022-08-04T15:39:23.573Z,4.80
2022-08-04T15:40:33.033Z,6.10
2022-08-04T15:41:55.177Z,6.22
2022-08-04T15:43:10.713Z,5.95
2022-08-04T15:44:55.184Z,5.35
2022-08-04T15:46:41.951Z,4.38
2022-08-04T15:47:23.593Z,5.38
2022-08-04T15:48:29.090Z,5.23
2022-08-04T15:49:34.705Z,4.57
2022-08-04T15:50:56.802Z,6.37
2022-08-04T15:52:12.057Z,6.63
2022-08-04T15:53:14.424Z,5.90
2022-08-04T15:54:27.884Z,5.93
2022-08-04T15:55:41.065Z,7.03
2022-08-04T15:56:48.520Z,6.40
2022-08-04T15:58:06.756Z,6.67
2022-08-04T15:59:09.272Z,5.70
2022-08-04T16:00:15.061Z,5.90
2022-08-04T16:01:18.078Z,6.30
2022-08-04T16:02:36.178Z,6.43
2022-08-04T16:03:58.830Z,6.90
2022-08-04T16:05:17.705Z,5.80
2022-08-04T16:06:20.389Z,6.03
2022-08-04T16:07:42.074Z,5.73
2022-08-04T16:08:58.786Z,6.70
2022-08-04T16:10:31.459Z,5.80
2022-08-04T16:11:34.907Z,6.07
2022-08-04T16:12:57.029Z,6.40
2022-08-04T16:14:01.860Z,5.90
2022-08-04T16:15:41.434Z,6.10
2022-08-04T16:16:45.178Z,6.27
2022-08-04T16:17:47.146Z,6.47
2022-08-04T16:18:48.846Z,7.73
2022-08-04T16:20:02.040Z,7.00
2022-08-04T16:21:06.599Z,7.10
2022-08-04T16:22:13.145Z,6.57
2022-08-04T16:23:43.800Z,6.57
2022-08-04T16:24:43.654Z,7.17
2022-08-04T16:25:48.363Z,7.63
2022-08-04T16:26:57.973Z,6.93
2022-08-04T16:27:59.687Z,6.67
2022-08-04T16:29:01.553Z,6.90
2022-08-04T16:30:13.627Z,5.30
2022-08-04T16:31:15.958Z,6.60
2022-08-04T16:32:19.087Z,6.63
2022-08-04T16:33:28.280Z,5.60